createdAt,value
2023-08-09T00:02:24.408Z,92.81
2023-08-09T00:04:51.336Z,92.89
2023-08-09T00:07:17.941Z,93.20
2023-08-09T00:09:44.836Z,93.04
2023-08-09T00:12:11.784Z,93.27
2023-08-09T00:14:38.498Z,93.04
2023-08-09T00:17:05.405Z,92.76
2023-08-09T00:19:32.273Z,92.42
2023-08-09T00:21:59.427Z,92.54
2023-08-09T00:24:26.237Z,92.24
2023-08-09T00:26:53.333Z,92.09
2023-08-09T00:29:20.331Z,91.76
2023-08-09T00:31:47.305Z,91.96
2023-08-09T00:34:14.211Z,91.97
2023-08-09T00:36:41.037Z,91.67
2023-08-09T00:39:08.922Z,91.64
2023-08-09T00:41:35.846Z,91.80
2023-08-09T00:44:02.770Z,92.52
2023-08-09T00:46:29.696Z,93.13
2023-08-09T00:48:56.741Z,93.29
2023-08-09T00:51:24.248Z,93.83
2023-08-09T00:53:51.323Z,93.73
2023-08-09T00:56:18.461Z,93.63
2023-08-09T00:58:45.508Z,93.44
2023-08-09T01:01:12.319Z,93.26
2023-08-09T01:03:39.497Z,93.54
2023-08-09T01:06:24.908Z,93.46
2023-08-09T01:09:03.757Z,93.54
2023-08-09T01:11:42.018Z,93.26
2023-08-09T01:14:12.621Z,93.10
2023-08-09T01:16:39.749Z,92.69
2023-08-09T01:19:16.196Z,93.34
2023-08-09T01:21:44.288Z,93.80
2023-08-09T01:24:13.189Z,93.42
2023-08-09T01:26:40.648Z,93.07
2023-08-09T01:29:07.892Z,92.59
2023-08-09T01:31:34.816Z,92.68
2023-08-09T01:34:03.582Z,92.52
2023-08-09T01:36:36.825Z,92.36
2023-08-09T01:39:11.582Z,92.46
2023-08-09T01:41:40.025Z,92.44
2023-08-09T01:44:08.783Z,92.35
2023-08-09T01:46:36.310Z,92.51
2023-08-09T01:49:10.287Z,92.24
2023-08-09T01:51:37.515Z,92.61
2023-08-09T01:54:05.096Z,92.37
2023-08-09T01:56:32.061Z,92.31
2023-08-09T01:59:00.061Z,92.38
2023-08-09T02:01:27.282Z,92.58
2023-08-09T02:03:54.763Z,92.52
2023-08-09T02:06:21.991Z,92.91
2023-08-09T02:08:49.553Z,93.09
2023-08-09T02:11:16.626Z,92.90
2023-08-09T02:13:44.081Z,93.48
2023-08-09T02:16:11.178Z,93.23
2023-08-09T02:18:39.454Z,92.96
2023-08-09T02:21:06.409Z,93.15
2023-08-09T02:23:33.508Z,92.95
2023-08-09T02:26:00.255Z,93.15
2023-08-09T02:28:27.201Z,92.85
2023-08-09T02:30:54.781Z,92.47
2023-08-09T02:33:21.764Z,92.29
2023-08-09T02:35:54.109Z,92.37
2023-08-09T02:38:21.978Z,92.63
2023-08-09T02:40:51.485Z,92.76
2023-08-09T02:43:19.922Z,92.78
2023-08-09T02:45:46.971Z,92.56
2023-08-09T02:48:14.142Z,92.60
2023-08-09T02:50:41.757Z,92.73
2023-08-09T02:53:11.975Z,92.56
2023-08-09T02:55:39.091Z,92.59
2023-08-09T02:58:06.317Z,92.44
2023-08-09T03:00:34.534Z,92.28
2023-08-09T03:03:05.198Z,92.19
2023-08-09T03:05:33.089Z,92.38
2023-08-09T03:07:59.950Z,92.28
2023-08-09T03:10:27.238Z,92.42
2023-08-09T03:12:54.031Z,92.53
2023-08-09T03:15:22.605Z,92.45
2023-08-09T03:17:49.561Z,92.35
2023-08-09T03:20:17.718Z,92.16
2023-08-09T03:22:45.776Z,92.24
2023-08-09T03:25:13.541Z,92.33
2023-08-09T03:27:43.870Z,92.53
2023-08-09T03:30:11.560Z,92.46
2023-08-09T03:32:38.763Z,92.64
2023-08-09T03:35:07.711Z,92.65
2023-08-09T03:37:35.616Z,92.70
2023-08-09T03:40:04.656Z,92.70
2023-08-09T03:42:31.469Z,92.64
2023-08-09T03:44:58.504Z,92.71
2023-08-09T03:47:25.230Z,92.60
2023-08-09T03:49:52.315Z,92.60
2023-08-09T03:52:19.134Z,92.82
2023-08-09T03:54:46.033Z,92.82
2023-08-09T03:57:12.909Z,92.82
2023-08-09T03:59:39.830Z,92.90
2023-08-09T04:02:06.856Z,93.05
2023-08-09T04:04:35.270Z,92.94
2023-08-09T04:07:02.906Z,92.76
2023-08-09T04:09:29.924Z,92.57
2023-08-09T04:11:56.959Z,92.38
2023-08-09T04:14:24.547Z,92.22
2023-08-09T04:16:51.678Z,92.22
2023-08-09T04:19:18.658Z,92.01
2023-08-09T04:21:45.597Z,91.84
2023-08-09T04:24:13.448Z,91.75
2023-08-09T04:26:40.191Z,91.60
2023-08-09T04:29:07.744Z,91.29
2023-08-09T04:31:34.786Z,91.30
2023-08-09T04:34:01.725Z,90.92
2023-08-09T04:36:28.955Z,90.27
2023-08-09T04:38:56.045Z,90.12
2023-08-09T04:41:22.877Z,88.80
2023-08-09T04:43:50.327Z,86.36
2023-08-09T04:46:18.103Z,86.24
2023-08-09T04:48:46.097Z,84.71
2023-08-09T04:51:13.280Z,83.81
2023-08-09T04:53:40.158Z,80.82
2023-08-09T04:56:08.166Z,80.77
2023-08-09T04:58:35.434Z,80.31
2023-08-09T05:01:02.489Z,80.47
2023-08-09T05:03:30.604Z,78.93
2023-08-09T05:05:57.626Z,77.16
2023-08-09T05:08:24.437Z,76.51
2023-08-09T05:10:52.288Z,74.04
2023-08-09T05:13:20.677Z,74.26
2023-08-09T05:15:47.467Z,74.09
2023-08-09T05:18:14.439Z,73.67
2023-08-09T05:20:41.403Z,71.32
2023-08-09T05:23:08.646Z,69.47
2023-08-09T05:25:35.794Z,70.50
2023-08-09T05:28:03.075Z,68.56
2023-08-09T05:30:30.102Z,66.79
2023-08-09T05:32:59.277Z,65.62
2023-08-09T05:35:29.662Z,64.64
2023-08-09T05:37:56.845Z,64.40
2023-08-09T05:40:23.798Z,63.61
2023-08-09T05:42:50.696Z,61.65
2023-08-09T05:45:18.204Z,62.53
2023-08-09T05:47:45.114Z,61.85
2023-08-09T05:50:12.126Z,62.25
2023-08-09T05:52:39.098Z,61.72
2023-08-09T05:55:06.871Z,59.46
2023-08-09T05:57:34.398Z,59.46
2023-08-09T06:00:01.301Z,59.65
2023-08-09T06:02:28.506Z,58.84
2023-08-09T06:04:55.472Z,58.17
2023-08-09T06:07:22.285Z,56.58
2023-08-09T06:09:49.082Z,55.31
2023-08-09T06:12:15.956Z,55.32
2023-08-09T06:14:42.998Z,54.96
2023-08-09T06:17:10.280Z,53.92
2023-08-09T06:19:37.162Z,53.87
2023-08-09T06:22:04.599Z,51.49
2023-08-09T06:24:32.090Z,52.01
2023-08-09T06:26:59.226Z,52.37
2023-08-09T06:29:26.168Z,50.76
2023-08-09T06:31:52.984Z,51.06
2023-08-09T06:34:19.843Z,51.21
2023-08-09T06:36:46.771Z,50.92
2023-08-09T06:39:13.615Z,50.71
2023-08-09T06:41:40.537Z,49.16
2023-08-09T06:44:07.415Z,47.69
2023-08-09T06:46:34.400Z,45.75
2023-08-09T06:49:01.293Z,44.90
2023-08-09T06:51:28.499Z,44.47
2023-08-09T06:53:55.300Z,43.15
2023-08-09T06:56:22.353Z,42.81
2023-08-09T06:58:49.627Z,42.83
2023-08-09T07:01:16.641Z,42.52
2023-08-09T07:03:44.297Z,41.23
2023-08-09T07:06:11.275Z,40.55
2023-08-09T07:08:38.698Z,39.95
2023-08-09T07:11:05.785Z,39.51
2023-08-09T07:13:32.875Z,38.87
2023-08-09T07:15:59.958Z,38.59
2023-08-09T07:18:27.354Z,38.26
2023-08-09T07:20:54.227Z,38.53
2023-08-09T07:23:35.982Z,38.38
2023-08-09T07:26:08.962Z,36.81
2023-08-09T07:28:36.225Z,36.32
2023-08-09T07:31:03.821Z,37.06
2023-08-09T07:33:31.044Z,36.57
2023-08-09T07:35:58.061Z,36.42
2023-08-09T07:38:25.466Z,36.09
2023-08-09T07:40:52.787Z,35.78
2023-08-09T07:43:21.806Z,34.99
2023-08-09T07:45:50.143Z,34.23
2023-08-09T07:48:17.234Z,34.04
2023-08-09T07:50:44.366Z,33.97
2023-08-09T07:53:11.420Z,33.69
2023-08-09T07:55:39.926Z,34.01
2023-08-09T07:58:07.159Z,33.15
2023-08-09T08:00:46.736Z,33.06
2023-08-09T08:03:15.898Z,32.95
2023-08-09T08:05:43.593Z,32.82
2023-08-09T08:08:11.684Z,32.73
2023-08-09T08:10:39.017Z,32.25
2023-08-09T08:13:06.006Z,32.38
2023-08-09T08:15:32.923Z,32.14
2023-08-09T08:17:59.729Z,31.38
2023-08-09T08:20:26.603Z,31.06
2023-08-09T08:22:54.096Z,31.79
2023-08-09T08:25:21.255Z,31.20
2023-08-09T08:27:48.094Z,31.00
2023-08-09T08:30:20.389Z,30.23
2023-08-09T08:32:49.088Z,29.91
2023-08-09T08:35:20.872Z,29.21
2023-08-09T08:37:53.832Z,27.23
2023-08-09T08:40:23.935Z,27.30
2023-08-09T08:42:51.923Z,26.53
2023-08-09T08:45:19.987Z,26.32
2023-08-09T08:47:48.251Z,26.40
2023-08-09T08:50:16.864Z,26.17
2023-08-09T08:52:47.431Z,26.79
2023-08-09T08:55:15.490Z,26.42
2023-08-09T08:57:46.620Z,25.88
2023-08-09T09:00:26.053Z,25.69
2023-08-09T09:02:57.396Z,25.33
2023-08-09T09:05:24.472Z,25.33
2023-08-09T09:07:53.301Z,25.46
2023-08-09T09:10:21.650Z,25.56
2023-08-09T09:12:56.324Z,25.60
2023-08-09T09:15:24.562Z,25.16
2023-08-09T09:17:52.001Z,25.83
2023-08-09T09:20:30.317Z,25.62
2023-08-09T09:22:57.594Z,25.18
2023-08-09T09:25:25.109Z,24.60
2023-08-09T09:27:57.534Z,24.57
2023-08-09T09:30:25.772Z,25.14
2023-08-09T09:33:05.678Z,25.19
2023-08-09T09:35:34.040Z,24.54
2023-08-09T09:38:02.900Z,25.17
2023-08-09T09:40:43.122Z,25.35
2023-08-09T09:43:10.938Z,24.75
2023-08-09T09:45:38.366Z,24.07
2023-08-09T09:48:18.913Z,24.11
2023-08-09T09:50:45.950Z,24.19
2023-08-09T09:53:14.870Z,24.23
2023-08-09T09:55:42.208Z,24.56
2023-08-09T09:58:09.198Z,25.26
2023-08-09T10:00:38.547Z,25.69
2023-08-09T10:03:05.543Z,25.78
2023-08-09T10:05:41.601Z,26.16
2023-08-09T10:08:14.117Z,26.39
2023-08-09T10:10:44.215Z,26.51
2023-08-09T10:13:15.578Z,26.90
2023-08-09T10:16:06.322Z,27.35
2023-08-09T10:18:40.147Z,27.75
2023-08-09T10:21:11.403Z,28.11
2023-08-09T10:23:38.166Z,28.39
2023-08-09T10:26:05.159Z,28.85
2023-08-09T10:28:42.715Z,27.59
2023-08-09T10:31:10.658Z,26.84
2023-08-09T10:33:42.982Z,26.43
2023-08-09T10:36:14.301Z,26.54
2023-08-09T10:38:48.240Z,26.46
2023-08-09T10:41:16.992Z,26.18
2023-08-09T10:43:44.672Z,26.40
2023-08-09T10:46:24.822Z,26.30
2023-08-09T10:48:53.647Z,26.11
2023-08-09T10:51:25.206Z,24.81
2023-08-09T10:54:01.372Z,24.53
2023-08-09T10:56:43.322Z,24.38
2023-08-09T10:59:14.013Z,23.83
2023-08-09T11:01:43.029Z,23.71
2023-08-09T11:04:13.639Z,23.84
2023-08-09T11:06:41.756Z,23.56
2023-08-09T11:09:13.023Z,23.33
2023-08-09T11:11:43.072Z,23.48
2023-08-09T11:14:11.464Z,23.96
2023-08-09T11:16:39.505Z,23.64
2023-08-09T11:19:23.894Z,23.71
2023-08-09T11:21:57.368Z,23.43
2023-08-09T11:24:25.042Z,23.83
2023-08-09T11:26:56.961Z,23.83
2023-08-09T11:29:26.748Z,23.90
2023-08-09T11:31:59.464Z,23.22
2023-08-09T11:34:30.032Z,22.76
2023-08-09T11:36:57.285Z,22.77
2023-08-09T11:39:26.174Z,23.19
2023-08-09T11:41:56.891Z,23.72
2023-08-09T11:44:31.549Z,23.59
2023-08-09T11:47:01.652Z,23.48
2023-08-09T11:49:30.277Z,23.29
2023-08-09T11:51:57.823Z,23.53
2023-08-09T11:54:26.276Z,23.60
2023-08-09T11:56:54.126Z,23.77
2023-08-09T11:59:23.678Z,23.97
2023-08-09T12:01:54.500Z,24.03
2023-08-09T12:04:24.077Z,23.81
2023-08-09T12:06:56.243Z,23.65
2023-08-09T12:09:43.034Z,23.63
2023-08-09T12:12:16.878Z,23.64
2023-08-09T12:14:51.964Z,23.87
2023-08-09T12:17:23.558Z,24.00
2023-08-09T12:19:52.378Z,23.85
2023-08-09T12:22:20.154Z,23.78
2023-08-09T12:24:47.163Z,24.13
2023-08-09T12:27:15.222Z,24.07
2023-08-09T12:29:42.989Z,23.85
2023-08-09T12:32:09.989Z,24.09
2023-08-09T12:34:36.906Z,24.05
2023-08-09T12:37:04.909Z,24.07
2023-08-09T12:39:32.549Z,24.14
2023-08-09T12:41:59.917Z,23.96
2023-08-09T12:44:26.979Z,23.62
2023-08-09T12:46:54.417Z,23.82
2023-08-09T12:49:22.680Z,23.89
2023-08-09T12:51:49.515Z,24.45
2023-08-09T12:54:17.339Z,24.43
2023-08-09T12:56:44.521Z,24.45
2023-08-09T12:59:11.533Z,24.68
2023-08-09T13:01:38.622Z,24.86
2023-08-09T13:04:09.219Z,25.33
2023-08-09T13:06:42.063Z,25.77
2023-08-09T13:09:09.192Z,25.98
2023-08-09T13:11:36.099Z,26.10
2023-08-09T13:14:05.977Z,26.14
2023-08-09T13:16:33.184Z,26.36
2023-08-09T13:19:00.547Z,26.18
2023-08-09T13:21:27.496Z,25.98
2023-08-09T13:23:54.433Z,26.26
2023-08-09T13:26:21.488Z,26.41
2023-08-09T13:28:48.288Z,26.30
2023-08-09T13:31:15.492Z,26.55
2023-08-09T13:33:42.634Z,26.61
2023-08-09T13:36:09.573Z,26.67
2023-08-09T13:38:41.980Z,26.78
2023-08-09T13:41:10.131Z,26.48
2023-08-09T13:43:37.769Z,26.47
2023-08-09T13:46:06.772Z,26.50
2023-08-09T13:48:34.876Z,25.59
2023-08-09T13:51:01.908Z,25.47
2023-08-09T13:53:28.866Z,25.47
2023-08-09T13:55:55.920Z,25.77
2023-08-09T13:58:22.851Z,25.83
2023-08-09T14:00:50.674Z,25.74
2023-08-09T14:03:17.948Z,25.55
2023-08-09T14:05:45.109Z,25.45
2023-08-09T14:08:12.270Z,25.47
2023-08-09T14:10:41.737Z,25.18
2023-08-09T14:13:09.318Z,25.24
2023-08-09T14:15:36.394Z,25.55
2023-08-09T14:18:06.290Z,25.61
2023-08-09T14:20:35.928Z,25.70
2023-08-09T14:23:03.083Z,25.84
2023-08-09T14:25:30.086Z,25.80
2023-08-09T14:27:56.874Z,25.89
2023-08-09T14:30:24.019Z,26.09
2023-08-09T14:32:51.266Z,26.00
2023-08-09T14:35:20.458Z,26.02
2023-08-09T14:37:47.414Z,26.02
2023-08-09T14:40:14.460Z,25.96
2023-08-09T14:42:42.344Z,25.86
2023-08-09T14:45:11.989Z,26.00
2023-08-09T14:47:40.308Z,25.95
2023-08-09T14:50:09.588Z,25.74
2023-08-09T14:52:36.672Z,25.75
2023-08-09T14:55:04.174Z,25.45
2023-08-09T14:57:33.516Z,25.63
2023-08-09T15:00:00.614Z,26.30
2023-08-09T15:02:27.740Z,26.46
2023-08-09T15:04:54.624Z,26.84
2023-08-09T15:07:22.942Z,27.43
2023-08-09T15:09:49.851Z,27.60
2023-08-09T15:12:17.120Z,27.95
2023-08-09T15:14:45.229Z,28.19
2023-08-09T15:19:42.454Z,28.48
2023-08-09T15:22:10.140Z,28.72
2023-08-09T15:24:36.953Z,28.91
2023-08-09T15:27:04.339Z,29.15
2023-08-09T15:29:32.499Z,29.35
2023-08-09T15:31:59.290Z,29.42
2023-08-09T15:34:26.749Z,29.59
2023-08-09T15:36:54.038Z,29.76
2023-08-09T15:39:21.238Z,29.90
2023-08-09T15:41:48.291Z,30.26
2023-08-09T15:44:17.383Z,30.95
2023-08-09T15:46:44.602Z,30.99
2023-08-09T15:49:11.710Z,31.29
2023-08-09T15:51:39.403Z,31.41
2023-08-09T15:54:06.667Z,31.56
2023-08-09T15:56:33.627Z,31.67
2023-08-09T15:59:00.445Z,31.58
2023-08-09T16:01:28.047Z,31.85
2023-08-09T16:03:55.019Z,32.19
2023-08-09T16:06:21.990Z,32.49
2023-08-09T16:08:48.722Z,32.52
2023-08-09T16:11:15.662Z,32.65
2023-08-09T16:13:42.625Z,32.86
2023-08-09T16:16:20.174Z,32.76
2023-08-09T16:18:51.297Z,32.95
2023-08-09T16:21:18.157Z,32.94
2023-08-09T16:23:44.958Z,33.44
2023-08-09T16:26:12.124Z,33.43
2023-08-09T16:28:40.638Z,33.47
2023-08-09T16:31:07.500Z,33.55
2023-08-09T16:33:35.155Z,33.25
2023-08-09T16:36:02.075Z,33.04
2023-08-09T16:38:29.014Z,32.95
2023-08-09T16:40:55.940Z,32.87
2023-08-09T16:43:22.903Z,33.04
2023-08-09T16:45:49.742Z,32.63
2023-08-09T16:48:16.669Z,32.72
2023-08-09T16:50:43.491Z,33.03
2023-08-09T16:53:10.653Z,33.40
2023-08-09T16:55:37.592Z,33.51
2023-08-09T16:58:04.402Z,33.84
2023-08-09T17:00:31.464Z,34.11
2023-08-09T17:02:58.467Z,34.02
2023-08-09T17:05:25.848Z,33.54
2023-08-09T17:07:52.785Z,33.62
2023-08-09T17:10:19.646Z,33.93
2023-08-09T17:12:46.519Z,34.77
2023-08-09T17:15:13.391Z,35.62
2023-08-09T17:17:40.812Z,36.07
2023-08-09T17:20:09.595Z,36.69
2023-08-09T17:22:37.503Z,37.14
2023-08-09T17:25:04.747Z,37.49
2023-08-09T17:27:32.131Z,37.63
2023-08-09T17:29:59.269Z,38.05
2023-08-09T17:32:26.141Z,38.41
2023-08-09T17:34:53.083Z,38.64
2023-08-09T17:37:20.202Z,38.78
2023-08-09T17:39:48.447Z,39.17
2023-08-09T17:42:15.416Z,39.35
2023-08-09T17:44:42.294Z,39.53
2023-08-09T17:47:12.613Z,39.65
2023-08-09T17:49:39.955Z,39.63
2023-08-09T17:52:07.239Z,39.70
2023-08-09T17:54:34.737Z,39.98
2023-08-09T17:57:03.604Z,40.20
2023-08-09T17:59:33.688Z,40.66
2023-08-09T18:02:00.640Z,40.61
2023-08-09T18:04:27.606Z,40.75
2023-08-09T18:06:55.164Z,40.84
2023-08-09T18:09:22.143Z,41.13
2023-08-09T18:11:49.034Z,43.04
2023-08-09T18:14:16.036Z,44.65
2023-08-09T18:16:45.411Z,45.07
2023-08-09T18:19:13.902Z,45.20
2023-08-09T18:21:40.852Z,45.28
2023-08-09T18:24:08.880Z,45.74
2023-08-09T18:26:35.902Z,46.20
2023-08-09T18:29:04.457Z,46.66
2023-08-09T18:31:32.564Z,46.84
2023-08-09T18:33:59.617Z,46.94
2023-08-09T18:36:26.349Z,47.58
2023-08-09T18:38:53.561Z,47.74
2023-08-09T18:41:21.058Z,48.05
2023-08-09T18:43:48.206Z,47.96
2023-08-09T18:46:15.325Z,47.94
2023-08-09T18:48:42.283Z,48.00
2023-08-09T18:51:09.219Z,48.11
2023-08-09T18:53:36.178Z,48.75
2023-08-09T18:56:03.436Z,48.99
2023-08-09T18:58:30.564Z,49.14
2023-08-09T19:00:57.723Z,49.78
2023-08-09T19:03:24.692Z,49.65
2023-08-09T19:05:51.646Z,50.08
2023-08-09T19:08:18.546Z,50.33
2023-08-09T19:10:46.176Z,50.74
2023-08-09T19:13:13.456Z,51.22
2023-08-09T19:15:40.452Z,51.74
2023-08-09T19:18:07.334Z,52.84
2023-08-09T19:20:35.074Z,53.16
2023-08-09T19:23:01.987Z,53.07
2023-08-09T19:25:29.679Z,53.29
2023-08-09T19:27:57.769Z,53.19
2023-08-09T19:30:27.250Z,53.55
2023-08-09T19:32:54.798Z,53.63
2023-08-09T19:35:21.922Z,54.20
2023-08-09T19:37:49.164Z,54.93
2023-08-09T19:40:15.967Z,55.82
2023-08-09T19:42:42.981Z,56.66
2023-08-09T19:45:12.548Z,56.96
2023-08-09T19:47:39.635Z,56.96
2023-08-09T19:50:08.397Z,56.72
2023-08-09T19:52:35.204Z,56.82
2023-08-09T19:55:02.135Z,57.12
2023-08-09T19:57:29.545Z,56.86
2023-08-09T19:59:56.370Z,57.45
2023-08-09T20:02:24.553Z,58.09
2023-08-09T20:04:51.582Z,58.67
2023-08-09T20:07:18.380Z,60.06
2023-08-09T20:09:45.344Z,60.71
2023-08-09T20:12:12.411Z,60.69
2023-08-09T20:14:39.258Z,61.81
2023-08-09T20:17:06.715Z,62.31
2023-08-09T20:19:33.883Z,61.28
2023-08-09T20:22:00.653Z,61.79
2023-08-09T20:24:41.741Z,62.24
2023-08-09T20:27:10.162Z,62.75
2023-08-09T20:29:38.122Z,62.55
2023-08-09T20:32:06.881Z,62.77
2023-08-09T20:34:34.759Z,63.77
2023-08-09T20:37:03.979Z,64.42
2023-08-09T20:39:32.454Z,64.69
2023-08-09T20:42:00.113Z,64.37
2023-08-09T20:44:27.863Z,64.67
2023-08-09T20:46:54.812Z,65.26
2023-08-09T20:49:23.754Z,64.95
2023-08-09T20:51:50.571Z,65.37
2023-08-09T20:54:17.591Z,64.81
2023-08-09T20:56:44.639Z,64.72
2023-08-09T20:59:11.430Z,64.29
2023-08-09T21:01:41.239Z,65.10
2023-08-09T21:04:08.991Z,64.59
2023-08-09T21:06:35.936Z,65.04
2023-08-09T21:09:05.354Z,65.70
2023-08-09T21:11:32.151Z,66.05
2023-08-09T21:13:58.881Z,65.91
2023-08-09T21:16:25.857Z,67.08
2023-08-09T21:18:52.878Z,67.19
2023-08-09T21:23:53.766Z,67.11
2023-08-09T21:26:38.480Z,67.11
2023-08-09T21:29:06.951Z,67.25
2023-08-09T21:31:33.824Z,67.65
2023-08-09T21:34:00.667Z,67.16
2023-08-09T21:36:27.388Z,67.92
2023-08-09T21:38:54.111Z,68.18
2023-08-09T21:41:21.025Z,67.85
2023-08-09T21:43:47.798Z,67.67
2023-08-09T21:46:14.751Z,67.82
2023-08-09T21:48:41.681Z,67.53
2023-08-09T21:51:08.829Z,67.24
2023-08-09T21:53:36.442Z,67.32
2023-08-09T21:56:03.617Z,67.47
2023-08-09T21:58:30.512Z,67.54
2023-08-09T22:00:57.585Z,67.83
2023-08-09T22:03:24.539Z,68.58
2023-08-09T22:05:53.603Z,68.73
2023-08-09T22:08:20.432Z,69.07
2023-08-09T22:10:47.352Z,69.35
2023-08-09T22:13:15.315Z,70.76
2023-08-09T22:15:42.800Z,72.22
2023-08-09T22:18:16.432Z,72.59
2023-08-09T22:20:45.195Z,72.27
2023-08-09T22:23:12.830Z,72.39
2023-08-09T22:25:39.665Z,72.27
2023-08-09T22:28:08.977Z,72.51
2023-08-09T22:30:36.468Z,73.09
2023-08-09T22:33:03.634Z,74.18
2023-08-09T22:35:31.107Z,74.61
2023-08-09T22:37:58.112Z,74.95
2023-08-09T22:40:26.259Z,75.28
2023-08-09T22:42:53.260Z,75.65
2023-08-09T22:45:20.349Z,75.81
2023-08-09T22:47:47.369Z,75.07
2023-08-09T22:50:15.096Z,74.30
2023-08-09T22:52:42.051Z,74.09
2023-08-09T22:55:09.419Z,73.53
2023-08-09T22:57:36.762Z,73.41
2023-08-09T23:00:07.512Z,73.49
2023-08-09T23:02:34.717Z,73.43
2023-08-09T23:05:01.693Z,73.28
2023-08-09T23:07:28.652Z,73.87
2023-08-09T23:09:58.124Z,74.41
2023-08-09T23:12:24.993Z,74.55
2023-08-09T23:14:52.000Z,75.22
2023-08-09T23:17:19.168Z,74.79
2023-08-09T23:19:46.120Z,74.80
2023-08-09T23:22:12.912Z,74.89
2023-08-09T23:24:40.382Z,74.74
2023-08-09T23:27:07.357Z,75.40
2023-08-09T23:29:34.990Z,75.00
2023-08-09T23:32:02.643Z,75.10
2023-08-09T23:34:29.563Z,75.22
2023-08-09T23:36:56.504Z,74.75
2023-08-09T23:39:24.137Z,74.60
2023-08-09T23:41:50.859Z,74.68
2023-08-09T23:44:17.768Z,75.57
2023-08-09T23:46:44.721Z,75.57
2023-08-09T23:49:11.625Z,75.24
2023-08-09T23:51:38.503Z,75.29
2023-08-09T23:54:05.570Z,75.69
2023-08-09T23:56:32.400Z,75.34
2023-08-09T23:58:59.241Z,75.67
